sensor_id;sensor_type;location;lat;lon;timestamp;P1;durP1;ratioP1;P2;durP2;ratioP2
51612;SDS011;37694;51.748;14.326;2023-04-15T00:02:00;5.03;;;4.22;;
51612;SDS011;37694;51.748;14.326;2023-04-15T00:04:28;6.47;;;4.82;;
51612;SDS011;37694;51.748;14.326;2023-04-15T00:06:55;5.60;;;4.95;;
51612;SDS011;37694;51.748;14.326;2023-04-15T00:09:21;6.30;;;4.65;;
51612;SDS011;37694;51.748;14.326;2023-04-15T00:11:47;5.55;;;5.05;;
51612;SDS011;37694;51.748;14.326;2023-04-15T00:14:14;5.88;;;5.30;;
51612;SDS011;37694;51.748;14.326;2023-04-15T00:16:40;5.13;;;4.63;;
51612;SDS011;37694;51.748;14.326;2023-04-15T00:19:06;5.50;;;4.90;;
51612;SDS011;37694;51.748;14.326;2023-04-15T00:21:31;6.22;;;5.00;;
51612;SDS011;37694;51.748;14.326;2023-04-15T00:23:57;10.15;;;5.57;;
51612;SDS011;37694;51.748;14.326;2023-04-15T00:26:23;5.85;;;5.25;;
51612;SDS011;37694;51.748;14.326;2023-04-15T00:28:48;6.97;;;5.00;;
51612;SDS011;37694;51.748;14.326;2023-04-15T00:31:14;5.53;;;4.95;;
51612;SDS011;37694;51.748;14.326;2023-04-15T00:33:40;6.03;;;4.93;;
51612;SDS011;37694;51.748;14.326;2023-04-15T00:36:06;5.80;;;5.20;;
51612;SDS011;37694;51.748;14.326;2023-04-15T00:38:32;5.18;;;4.68;;
51612;SDS011;37694;51.748;14.326;2023-04-15T00:40:58;5.68;;;5.05;;
51612;SDS011;37694;51.748;14.326;2023-04-15T00:43:24;5.53;;;4.78;;
51612;SDS011;37694;51.748;14.326;2023-04-15T00:45:51;5.65;;;5.03;;
51612;SDS011;37694;51.748;14.326;2023-04-15T00:48:18;5.35;;;4.85;;
51612;SDS011;37694;51.748;14.326;2023-04-15T00:50:45;6.18;;;5.38;;
51612;SDS011;37694;51.748;14.326;2023-04-15T00:53:10;6.93;;;5.43;;
51612;SDS011;37694;51.748;14.326;2023-04-15T00:55:36;5.45;;;4.95;;
51612;SDS011;37694;51.748;14.326;2023-04-15T00:58:02;8.07;;;5.20;;
51612;SDS011;37694;51.748;14.326;2023-04-15T01:00:28;5.85;;;5.25;;
51612;SDS011;37694;51.748;14.326;2023-04-15T01:02:54;7.60;;;5.38;;
51612;SDS011;37694;51.748;14.326;2023-04-15T01:05:20;5.30;;;4.80;;
51612;SDS011;37694;51.748;14.326;2023-04-15T01:07:46;5.78;;;5.18;;
51612;SDS011;37694;51.748;14.326;2023-04-15T01:10:12;5.40;;;4.90;;
51612;SDS011;37694;51.748;14.326;2023-04-15T01:12:38;7.18;;;5.97;;
51612;SDS011;37694;51.748;14.326;2023-04-15T01:15:04;5.32;;;4.68;;
51612;SDS011;37694;51.748;14.326;2023-04-15T01:17:30;6.18;;;5.57;;
51612;SDS011;37694;51.748;14.326;2023-04-15T01:19:56;7.22;;;5.35;;
51612;SDS011;37694;51.748;14.326;2023-04-15T01:22:23;5.85;;;5.18;;
51612;SDS011;37694;51.748;14.326;2023-04-15T01:24:54;7.63;;;5.18;;
51612;SDS011;37694;51.748;14.326;2023-04-15T01:27:30;6.85;;;5.70;;
51612;SDS011;37694;51.748;14.326;2023-04-15T01:29:56;7.75;;;4.60;;
51612;SDS011;37694;51.748;14.326;2023-04-15T01:32:22;6.85;;;5.88;;
51612;SDS011;37694;51.748;14.326;2023-04-15T01:34:48;6.55;;;5.15;;
51612;SDS011;37694;51.748;14.326;2023-04-15T01:37:13;6.65;;;5.35;;
51612;SDS011;37694;51.748;14.326;2023-04-15T01:39:39;5.75;;;4.82;;
51612;SDS011;37694;51.748;14.326;2023-04-15T01:42:05;5.28;;;4.72;;
51612;SDS011;37694;51.748;14.326;2023-04-15T01:44:31;5.85;;;5.25;;
51612;SDS011;37694;51.748;14.326;2023-04-15T01:46:56;5.80;;;4.90;;
51612;SDS011;37694;51.748;14.326;2023-04-15T01:49:23;6.97;;;5.70;;
51612;SDS011;37694;51.748;14.326;2023-04-15T01:51:48;6.50;;;5.50;;
51612;SDS011;37694;51.748;14.326;2023-04-15T01:54:14;5.60;;;5.00;;
51612;SDS011;37694;51.748;14.326;2023-04-15T01:56:40;6.72;;;5.03;;
51612;SDS011;37694;51.748;14.326;2023-04-15T01:59:06;5.95;;;5.13;;
51612;SDS011;37694;51.748;14.326;2023-04-15T02:01:31;8.60;;;5.55;;
51612;SDS011;37694;51.748;14.326;2023-04-15T02:03:57;5.88;;;5.28;;
51612;SDS011;37694;51.748;14.326;2023-04-15T02:06:23;8.93;;;4.60;;
51612;SDS011;37694;51.748;14.326;2023-04-15T02:08:49;6.30;;;5.70;;
51612;SDS011;37694;51.748;14.326;2023-04-15T02:11:15;6.25;;;5.15;;
51612;SDS011;37694;51.748;14.326;2023-04-15T02:13:40;10.48;;;5.57;;
51612;SDS011;37694;51.748;14.326;2023-04-15T02:16:16;12.18;;;5.85;;
51612;SDS011;37694;51.748;14.326;2023-04-15T02:18:45;6.88;;;5.72;;
51612;SDS011;37694;51.748;14.326;2023-04-15T02:21:11;5.50;;;5.00;;
51612;SDS011;37694;51.748;14.326;2023-04-15T02:23:37;5.20;;;4.68;;
51612;SDS011;37694;51.748;14.326;2023-04-15T02:26:03;6.15;;;5.35;;
51612;SDS011;37694;51.748;14.326;2023-04-15T02:28:28;8.32;;;5.55;;
51612;SDS011;37694;51.748;14.326;2023-04-15T02:30:54;6.38;;;5.70;;
51612;SDS011;37694;51.748;14.326;2023-04-15T02:33:21;5.72;;;5.22;;
51612;SDS011;37694;51.748;14.326;2023-04-15T02:35:47;7.25;;;5.50;;
51612;SDS011;37694;51.748;14.326;2023-04-15T02:38:13;7.00;;;5.60;;
51612;SDS011;37694;51.748;14.326;2023-04-15T02:40:40;6.05;;;4.88;;
51612;SDS011;37694;51.748;14.326;2023-04-15T02:43:06;5.32;;;4.82;;
51612;SDS011;37694;51.748;14.326;2023-04-15T02:45:32;5.30;;;4.63;;
51612;SDS011;37694;51.748;14.326;2023-04-15T02:47:58;7.70;;;5.03;;
51612;SDS011;37694;51.748;14.326;2023-04-15T02:50:25;5.45;;;4.95;;
51612;SDS011;37694;51.748;14.326;2023-04-15T02:52:51;6.47;;;5.88;;
51612;SDS011;37694;51.748;14.326;2023-04-15T02:55:17;7.93;;;5.53;;
51612;SDS011;37694;51.748;14.326;2023-04-15T02:57:42;8.00;;;4.82;;
51612;SDS011;37694;51.748;14.326;2023-04-15T03:00:08;5.95;;;4.97;;
51612;SDS011;37694;51.748;14.326;2023-04-15T03:02:38;5.90;;;5.20;;
51612;SDS011;37694;51.748;14.326;2023-04-15T03:05:06;6.63;;;5.13;;
51612;SDS011;37694;51.748;14.326;2023-04-15T03:07:35;5.90;;;5.38;;
51612;SDS011;37694;51.748;14.326;2023-04-15T03:10:01;7.13;;;5.50;;
51612;SDS011;37694;51.748;14.326;2023-04-15T03:12:26;5.93;;;5.32;;
51612;SDS011;37694;51.748;14.326;2023-04-15T03:14:53;5.63;;;5.03;;
51612;SDS011;37694;51.748;14.326;2023-04-15T03:17:19;5.68;;;5.13;;
51612;SDS011;37694;51.748;14.326;2023-04-15T03:19:44;8.23;;;5.28;;
51612;SDS011;37694;51.748;14.326;2023-04-15T03:22:10;8.60;;;6.22;;
51612;SDS011;37694;51.748;14.326;2023-04-15T03:24:35;5.78;;;5.20;;
51612;SDS011;37694;51.748;14.326;2023-04-15T03:27:01;6.47;;;5.78;;
51612;SDS011;37694;51.748;14.326;2023-04-15T03:29:27;5.95;;;5.35;;
51612;SDS011;37694;51.748;14.326;2023-04-15T03:31:53;6.80;;;6.10;;
51612;SDS011;37694;51.748;14.326;2023-04-15T03:34:18;7.60;;;5.57;;
51612;SDS011;37694;51.748;14.326;2023-04-15T03:36:45;6.28;;;5.68;;
51612;SDS011;37694;51.748;14.326;2023-04-15T03:39:11;5.97;;;5.20;;
51612;SDS011;37694;51.748;14.326;2023-04-15T03:41:37;7.55;;;5.63;;
51612;SDS011;37694;51.748;14.326;2023-04-15T03:44:02;6.10;;;5.60;;
51612;SDS011;37694;51.748;14.326;2023-04-15T03:46:28;6.07;;;5.47;;
51612;SDS011;37694;51.748;14.326;2023-04-15T03:48:54;6.28;;;5.43;;
51612;SDS011;37694;51.748;14.326;2023-04-15T03:51:19;6.40;;;5.75;;
51612;SDS011;37694;51.748;14.326;2023-04-15T03:53:45;6.03;;;5.43;;
51612;SDS011;37694;51.748;14.326;2023-04-15T03:56:11;8.18;;;5.75;;
51612;SDS011;37694;51.748;14.326;2023-04-15T03:58:36;5.95;;;5.35;;
51612;SDS011;37694;51.748;14.326;2023-04-15T04:01:02;7.38;;;5.53;;
51612;SDS011;37694;51.748;14.326;2023-04-15T04:03:28;8.05;;;6.03;;
51612;SDS011;37694;51.748;14.326;2023-04-15T04:05:53;5.97;;;5.45;;
51612;SDS011;37694;51.748;14.326;2023-04-15T04:08:20;5.90;;;5.40;;
51612;SDS011;37694;51.748;14.326;2023-04-15T04:10:46;6.45;;;5.32;;
51612;SDS011;37694;51.748;14.326;2023-04-15T04:13:11;6.05;;;5.55;;
51612;SDS011;37694;51.748;14.326;2023-04-15T04:15:37;7.07;;;5.70;;
51612;SDS011;37694;51.748;14.326;2023-04-15T04:18:03;6.88;;;5.57;;
51612;SDS011;37694;51.748;14.326;2023-04-15T04:20:28;7.22;;;5.07;;
51612;SDS011;37694;51.748;14.326;2023-04-15T04:22:56;8.38;;;5.93;;
51612;SDS011;37694;51.748;14.326;2023-04-15T04:25:21;7.07;;;5.38;;
51612;SDS011;37694;51.748;14.326;2023-04-15T04:27:48;6.70;;;5.47;;
51612;SDS011;37694;51.748;14.326;2023-04-15T04:30:14;7.85;;;5.88;;
51612;SDS011;37694;51.748;14.326;2023-04-15T04:32:40;7.45;;;5.35;;
51612;SDS011;37694;51.748;14.326;2023-04-15T04:35:06;6.53;;;5.82;;
51612;SDS011;37694;51.748;14.326;2023-04-15T04:37:32;5.60;;;5.10;;
51612;SDS011;37694;51.748;14.326;2023-04-15T04:39:57;6.10;;;5.50;;
51612;SDS011;37694;51.748;14.326;2023-04-15T04:42:23;7.32;;;5.90;;
51612;SDS011;37694;51.748;14.326;2023-04-15T04:44:49;5.85;;;5.35;;
51612;SDS011;37694;51.748;14.326;2023-04-15T04:47:14;6.10;;;5.50;;
51612;SDS011;37694;51.748;14.326;2023-04-15T04:49:40;5.95;;;5.28;;
51612;SDS011;37694;51.748;14.326;2023-04-15T04:52:06;6.10;;;5.50;;
51612;SDS011;37694;51.748;14.326;2023-04-15T04:54:32;5.70;;;5.13;;
51612;SDS011;37694;51.748;14.326;2023-04-15T04:56:57;6.75;;;5.63;;
51612;SDS011;37694;51.748;14.326;2023-04-15T04:59:23;5.97;;;5.38;;
51612;SDS011;37694;51.748;14.326;2023-04-15T05:01:49;6.57;;;5.50;;
51612;SDS011;37694;51.748;14.326;2023-04-15T05:04:15;8.52;;;6.00;;
51612;SDS011;37694;51.748;14.326;2023-04-15T05:06:40;6.88;;;6.18;;
51612;SDS011;37694;51.748;14.326;2023-04-15T05:09:06;6.50;;;5.68;;
51612;SDS011;37694;51.748;14.326;2023-04-15T05:11:32;7.25;;;5.80;;
51612;SDS011;37694;51.748;14.326;2023-04-15T05:13:57;7.20;;;6.20;;
51612;SDS011;37694;51.748;14.326;2023-04-15T05:16:26;8.10;;;5.97;;
51612;SDS011;37694;51.748;14.326;2023-04-15T05:18:52;6.88;;;5.80;;
51612;SDS011;37694;51.748;14.326;2023-04-15T05:21:18;6.82;;;5.68;;
51612;SDS011;37694;51.748;14.326;2023-04-15T05:23:44;8.23;;;5.78;;
51612;SDS011;37694;51.748;14.326;2023-04-15T05:26:10;8.30;;;5.82;;
51612;SDS011;37694;51.748;14.326;2023-04-15T05:28:36;6.60;;;5.15;;
51612;SDS011;37694;51.748;14.326;2023-04-15T05:31:01;6.38;;;5.78;;
51612;SDS011;37694;51.748;14.326;2023-04-15T05:33:27;6.55;;;5.40;;
51612;SDS011;37694;51.748;14.326;2023-04-15T05:35:53;7.90;;;5.70;;
51612;SDS011;37694;51.748;14.326;2023-04-15T05:38:19;6.75;;;5.30;;
51612;SDS011;37694;51.748;14.326;2023-04-15T05:40:45;6.95;;;5.25;;
51612;SDS011;37694;51.748;14.326;2023-04-15T05:43:11;10.35;;;5.90;;
51612;SDS011;37694;51.748;14.326;2023-04-15T05:45:36;8.20;;;6.20;;
51612;SDS011;37694;51.748;14.326;2023-04-15T05:48:02;9.52;;;5.78;;
51612;SDS011;37694;51.748;14.326;2023-04-15T05:50:28;8.57;;;5.38;;
51612;SDS011;37694;51.748;14.326;2023-04-15T05:52:53;15.90;;;5.97;;
51612;SDS011;37694;51.748;14.326;2023-04-15T05:55:20;9.63;;;5.18;;
51612;SDS011;37694;51.748;14.326;2023-04-15T05:57:46;17.90;;;5.97;;
51612;SDS011;37694;51.748;14.326;2023-04-15T06:00:11;10.73;;;5.35;;
51612;SDS011;37694;51.748;14.326;2023-04-15T06:02:38;13.85;;;5.93;;
51612;SDS011;37694;51.748;14.326;2023-04-15T06:05:04;9.70;;;5.20;;
51612;SDS011;37694;51.748;14.326;2023-04-15T06:07:35;9.10;;;6.10;;
51612;SDS011;37694;51.748;14.326;2023-04-15T06:10:02;8.40;;;4.93;;
51612;SDS011;37694;51.748;14.326;2023-04-15T06:12:28;8.93;;;5.25;;
51612;SDS011;37694;51.748;14.326;2023-04-15T06:14:53;15.98;;;5.60;;
51612;SDS011;37694;51.748;14.326;2023-04-15T06:17:19;9.18;;;5.43;;
51612;SDS011;37694;51.748;14.326;2023-04-15T06:19:45;7.32;;;5.32;;
51612;SDS011;37694;51.748;14.326;2023-04-15T06:22:10;5.88;;;4.85;;
51612;SDS011;37694;51.748;14.326;2023-04-15T06:24:36;10.10;;;4.85;;
51612;SDS011;37694;51.748;14.326;2023-04-15T06:27:02;8.85;;;4.70;;
51612;SDS011;37694;51.748;14.326;2023-04-15T06:29:27;11.98;;;5.43;;
51612;SDS011;37694;51.748;14.326;2023-04-15T06:31:53;9.30;;;4.47;;
51612;SDS011;37694;51.748;14.326;2023-04-15T06:34:20;7.28;;;5.47;;
51612;SDS011;37694;51.748;14.326;2023-04-15T06:36:46;8.75;;;4.25;;
51612;SDS011;37694;51.748;14.326;2023-04-15T06:39:12;12.63;;;4.97;;
51612;SDS011;37694;51.748;14.326;2023-04-15T06:41:37;5.85;;;5.15;;
51612;SDS011;37694;51.748;14.326;2023-04-15T06:44:03;5.43;;;4.93;;
51612;SDS011;37694;51.748;14.326;2023-04-15T06:46:29;9.30;;;4.88;;
51612;SDS011;37694;51.748;14.326;2023-04-15T06:48:55;6.78;;;5.03;;
51612;SDS011;37694;51.748;14.326;2023-04-15T06:51:21;7.75;;;5.25;;
51612;SDS011;37694;51.748;14.326;2023-04-15T06:53:47;7.78;;;5.50;;
51612;SDS011;37694;51.748;14.326;2023-04-15T06:56:13;6.88;;;5.32;;
51612;SDS011;37694;51.748;14.326;2023-04-15T06:58:39;7.15;;;5.80;;
51612;SDS011;37694;51.748;14.326;2023-04-15T07:01:05;10.23;;;5.20;;
51612;SDS011;37694;51.748;14.326;2023-04-15T07:03:31;9.90;;;4.95;;
51612;SDS011;37694;51.748;14.326;2023-04-15T07:05:56;10.20;;;5.47;;
51612;SDS011;37694;51.748;14.326;2023-04-15T07:08:22;8.57;;;5.25;;
51612;SDS011;37694;51.748;14.326;2023-04-15T07:10:48;11.30;;;5.65;;
51612;SDS011;37694;51.748;14.326;2023-04-15T07:13:14;11.88;;;6.05;;
51612;SDS011;37694;51.748;14.326;2023-04-15T07:15:41;12.18;;;5.38;;
51612;SDS011;37694;51.748;14.326;2023-04-15T07:18:06;12.25;;;5.50;;
51612;SDS011;37694;51.748;14.326;2023-04-15T07:20:33;10.65;;;5.85;;
51612;SDS011;37694;51.748;14.326;2023-04-15T07:22:59;12.32;;;5.80;;
51612;SDS011;37694;51.748;14.326;2023-04-15T07:25:25;14.20;;;5.43;;
51612;SDS011;37694;51.748;14.326;2023-04-15T07:27:51;18.55;;;5.45;;
51612;SDS011;37694;51.748;14.326;2023-04-15T07:30:18;15.77;;;5.93;;
51612;SDS011;37694;51.748;14.326;2023-04-15T07:32:43;13.85;;;7.20;;
51612;SDS011;37694;51.748;14.326;2023-04-15T07:35:09;9.82;;;5.93;;
51612;SDS011;37694;51.748;14.326;2023-04-15T07:37:35;20.50;;;6.00;;
51612;SDS011;37694;51.748;14.326;2023-04-15T07:40:01;13.27;;;7.30;;
51612;SDS011;37694;51.748;14.326;2023-04-15T07:42:31;13.48;;;6.28;;
51612;SDS011;37694;51.748;14.326;2023-04-15T07:44:58;15.18;;;6.90;;
51612;SDS011;37694;51.748;14.326;2023-04-15T07:47:23;8.68;;;5.85;;
51612;SDS011;37694;51.748;14.326;2023-04-15T07:49:49;13.23;;;6.50;;
51612;SDS011;37694;51.748;14.326;2023-04-15T07:52:15;10.77;;;6.65;;
51612;SDS011;37694;51.748;14.326;2023-04-15T07:54:41;14.40;;;6.28;;
51612;SDS011;37694;51.748;14.326;2023-04-15T07:57:07;22.95;;;6.18;;
51612;SDS011;37694;51.748;14.326;2023-04-15T07:59:32;27.00;;;8.40;;
51612;SDS011;37694;51.748;14.326;2023-04-15T08:01:58;39.22;;;11.60;;
51612;SDS011;37694;51.748;14.326;2023-04-15T08:04:24;75.47;;;24.67;;
51612;SDS011;37694;51.748;14.326;2023-04-15T08:06:50;56.85;;;13.02;;
51612;SDS011;37694;51.748;14.326;2023-04-15T08:09:16;46.92;;;13.88;;
51612;SDS011;37694;51.748;14.326;2023-04-15T08:11:42;50.15;;;10.75;;
51612;SDS011;37694;51.748;14.326;2023-04-15T08:14:07;30.75;;;11.52;;
51612;SDS011;37694;51.748;14.326;2023-04-15T08:16:33;38.67;;;10.68;;
51612;SDS011;37694;51.748;14.326;2023-04-15T08:18:59;40.13;;;11.68;;
51612;SDS011;37694;51.748;14.326;2023-04-15T08:21:25;37.22;;;10.68;;
51612;SDS011;37694;51.748;14.326;2023-04-15T08:23:52;36.80;;;10.93;;
51612;SDS011;37694;51.748;14.326;2023-04-15T08:26:18;46.72;;;11.95;;
51612;SDS011;37694;51.748;14.326;2023-04-15T08:28:45;36.85;;;11.50;;
51612;SDS011;37694;51.748;14.326;2023-04-15T08:31:11;40.38;;;11.82;;
51612;SDS011;37694;51.748;14.326;2023-04-15T08:33:41;41.88;;;11.60;;
51612;SDS011;37694;51.748;14.326;2023-04-15T08:36:06;38.88;;;11.25;;
51612;SDS011;37694;51.748;14.326;2023-04-15T08:38:33;35.22;;;10.93;;
51612;SDS011;37694;51.748;14.326;2023-04-15T08:40:59;28.55;;;9.70;;
51612;SDS011;37694;51.748;14.326;2023-04-15T08:43:45;21.98;;;9.50;;
51612;SDS011;37694;51.748;14.326;2023-04-15T08:46:15;31.80;;;10.95;;
51612;SDS011;37694;51.748;14.326;2023-04-15T08:48:41;30.13;;;10.93;;
51612;SDS011;37694;51.748;14.326;2023-04-15T08:51:08;35.78;;;10.32;;
51612;SDS011;37694;51.748;14.326;2023-04-15T08:53:34;26.80;;;8.82;;
51612;SDS011;37694;51.748;14.326;2023-04-15T08:56:02;24.52;;;9.55;;
51612;SDS011;37694;51.748;14.326;2023-04-15T08:58:31;29.65;;;9.38;;
51612;SDS011;37694;51.748;14.326;2023-04-15T09:00:58;24.13;;;7.90;;
51612;SDS011;37694;51.748;14.326;2023-04-15T09:03:24;20.98;;;9.45;;
51612;SDS011;37694;51.748;14.326;2023-04-15T09:05:50;28.13;;;8.88;;
51612;SDS011;37694;51.748;14.326;2023-04-15T09:08:16;24.65;;;9.18;;
51612;SDS011;37694;51.748;14.326;2023-04-15T09:10:42;23.30;;;8.82;;
51612;SDS011;37694;51.748;14.326;2023-04-15T09:13:07;27.85;;;8.95;;
51612;SDS011;37694;51.748;14.326;2023-04-15T09:15:33;19.70;;;8.30;;
51612;SDS011;37694;51.748;14.326;2023-04-15T09:18:03;24.70;;;8.43;;
51612;SDS011;37694;51.748;14.326;2023-04-15T09:20:29;16.35;;;7.18;;
51612;SDS011;37694;51.748;14.326;2023-04-15T09:23:11;26.97;;;8.70;;
51612;SDS011;37694;51.748;14.326;2023-04-15T09:25:38;27.00;;;8.95;;
51612;SDS011;37694;51.748;14.326;2023-04-15T09:28:06;16.65;;;7.93;;
51612;SDS011;37694;51.748;14.326;2023-04-15T09:30:32;20.40;;;8.23;;
51612;SDS011;37694;51.748;14.326;2023-04-15T09:33:00;22.90;;;8.35;;
51612;SDS011;37694;51.748;14.326;2023-04-15T09:35:27;17.88;;;6.85;;
51612;SDS011;37694;51.748;14.326;2023-04-15T09:38:00;17.67;;;8.02;;
51612;SDS011;37694;51.748;14.326;2023-04-15T09:43:03;19.85;;;7.85;;
51612;SDS011;37694;51.748;14.326;2023-04-15T09:45:30;13.57;;;7.43;;
51612;SDS011;37694;51.748;14.326;2023-04-15T09:47:57;14.25;;;7.43;;
51612;SDS011;37694;51.748;14.326;2023-04-15T09:50:39;15.93;;;7.43;;
51612;SDS011;37694;51.748;14.326;2023-04-15T09:53:08;20.25;;;7.18;;
51612;SDS011;37694;51.748;14.326;2023-04-15T09:55:38;12.10;;;6.68;;
51612;SDS011;37694;51.748;14.326;2023-04-15T09:58:16;18.48;;;6.78;;
51612;SDS011;37694;51.748;14.326;2023-04-15T10:00:49;12.48;;;6.88;;
51612;SDS011;37694;51.748;14.326;2023-04-15T10:03:17;17.30;;;7.75;;
51612;SDS011;37694;51.748;14.326;2023-04-15T10:05:45;13.88;;;7.07;;
51612;SDS011;37694;51.748;14.326;2023-04-15T10:08:14;14.57;;;7.18;;
51612;SDS011;37694;51.748;14.326;2023-04-15T10:10:42;13.05;;;6.55;;
51612;SDS011;37694;51.748;14.326;2023-04-15T10:13:08;19.98;;;7.90;;
51612;SDS011;37694;51.748;14.326;2023-04-15T10:15:35;13.35;;;6.28;;
51612;SDS011;37694;51.748;14.326;2023-04-15T10:18:01;11.10;;;6.82;;
51612;SDS011;37694;51.748;14.326;2023-04-15T10:20:29;14.63;;;7.45;;
51612;SDS011;37694;51.748;14.326;2023-04-15T10:22:55;13.25;;;6.57;;
51612;SDS011;37694;51.748;14.326;2023-04-15T10:25:21;13.27;;;6.95;;
51612;SDS011;37694;51.748;14.326;2023-04-15T10:27:49;12.07;;;6.72;;
51612;SDS011;37694;51.748;14.326;2023-04-15T10:30:16;13.35;;;6.68;;
51612;SDS011;37694;51.748;14.326;2023-04-15T10:32:43;17.17;;;6.97;;
51612;SDS011;37694;51.748;14.326;2023-04-15T10:35:10;14.35;;;6.43;;
51612;SDS011;37694;51.748;14.326;2023-04-15T10:37:36;10.82;;;6.78;;
51612;SDS011;37694;51.748;14.326;2023-04-15T10:42:59;11.90;;;6.97;;
51612;SDS011;37694;51.748;14.326;2023-04-15T10:45:26;10.85;;;6.53;;
51612;SDS011;37694;51.748;14.326;2023-04-15T10:47:56;11.40;;;6.32;;
51612;SDS011;37694;51.748;14.326;2023-04-15T10:50:25;11.40;;;6.65;;
51612;SDS011;37694;51.748;14.326;2023-04-15T10:52:52;12.80;;;6.95;;
51612;SDS011;37694;51.748;14.326;2023-04-15T10:55:19;9.93;;;6.45;;
51612;SDS011;37694;51.748;14.326;2023-04-15T10:57:50;14.10;;;7.25;;
51612;SDS011;37694;51.748;14.326;2023-04-15T11:00:21;9.88;;;6.68;;
51612;SDS011;37694;51.748;14.326;2023-04-15T11:02:56;14.77;;;7.25;;
51612;SDS011;37694;51.748;14.326;2023-04-15T11:08:07;11.52;;;6.57;;
51612;SDS011;37694;51.748;14.326;2023-04-15T11:13:01;10.05;;;6.45;;
51612;SDS011;37694;51.748;14.326;2023-04-15T11:15:39;15.43;;;7.03;;
51612;SDS011;37694;51.748;14.326;2023-04-15T11:20:43;8.88;;;5.93;;
51612;SDS011;37694;51.748;14.326;2023-04-15T11:23:11;10.38;;;6.68;;
51612;SDS011;37694;51.748;14.326;2023-04-15T11:25:40;9.63;;;5.57;;
51612;SDS011;37694;51.748;14.326;2023-04-15T11:28:06;11.77;;;5.57;;
51612;SDS011;37694;51.748;14.326;2023-04-15T11:30:33;9.75;;;6.28;;
51612;SDS011;37694;51.748;14.326;2023-04-15T11:33:02;11.98;;;6.00;;
51612;SDS011;37694;51.748;14.326;2023-04-15T11:35:29;11.52;;;6.45;;
51612;SDS011;37694;51.748;14.326;2023-04-15T11:37:55;9.25;;;6.00;;
51612;SDS011;37694;51.748;14.326;2023-04-15T11:40:23;8.35;;;5.50;;
51612;SDS011;37694;51.748;14.326;2023-04-15T11:45:29;8.57;;;6.22;;
51612;SDS011;37694;51.748;14.326;2023-04-15T11:48:03;11.23;;;6.32;;
51612;SDS011;37694;51.748;14.326;2023-04-15T11:50:30;6.90;;;5.68;;
51612;SDS011;37694;51.748;14.326;2023-04-15T11:52:56;7.03;;;5.78;;
51612;SDS011;37694;51.748;14.326;2023-04-15T11:55:23;9.60;;;5.82;;
51612;SDS011;37694;51.748;14.326;2023-04-15T11:58:35;9.18;;;5.95;;
51612;SDS011;37694;51.748;14.326;2023-04-15T12:00:40;11.75;;;6.38;;
51612;SDS011;37694;51.748;14.326;2023-04-15T12:03:10;8.13;;;5.82;;
51612;SDS011;37694;51.748;14.326;2023-04-15T12:06:23;9.68;;;5.95;;
51612;SDS011;37694;51.748;14.326;2023-04-15T12:11:14;9.88;;;5.70;;
51612;SDS011;37694;51.748;14.326;2023-04-15T12:13:54;8.48;;;5.55;;
51612;SDS011;37694;51.748;14.326;2023-04-15T12:19:09;8.02;;;5.63;;
51612;SDS011;37694;51.748;14.326;2023-04-15T12:21:37;8.63;;;5.53;;
51612;SDS011;37694;51.748;14.326;2023-04-15T12:24:08;10.15;;;5.38;;
51612;SDS011;37694;51.748;14.326;2023-04-15T12:26:45;7.85;;;5.20;;
51612;SDS011;37694;51.748;14.326;2023-04-15T12:29:13;7.47;;;5.53;;
51612;SDS011;37694;51.748;14.326;2023-04-15T12:31:50;9.55;;;6.20;;
51612;SDS011;37694;51.748;14.326;2023-04-15T12:34:18;9.90;;;5.85;;
51612;SDS011;37694;51.748;14.326;2023-04-15T12:36:51;7.40;;;5.10;;
51612;SDS011;37694;51.748;14.326;2023-04-15T12:39:20;6.60;;;5.43;;
51612;SDS011;37694;51.748;14.326;2023-04-15T12:41:47;7.05;;;5.63;;
51612;SDS011;37694;51.748;14.326;2023-04-15T12:44:13;7.38;;;5.35;;
51612;SDS011;37694;51.748;14.326;2023-04-15T12:46:38;7.53;;;5.97;;
51612;SDS011;37694;51.748;14.326;2023-04-15T12:49:05;8.50;;;5.38;;
51612;SDS011;37694;51.748;14.326;2023-04-15T12:51:32;8.43;;;6.00;;
51612;SDS011;37694;51.748;14.326;2023-04-15T12:53:57;8.05;;;5.60;;
51612;SDS011;37694;51.748;14.326;2023-04-15T12:56:23;5.72;;;4.72;;
51612;SDS011;37694;51.748;14.326;2023-04-15T12:58:49;6.75;;;5.55;;
51612;SDS011;37694;51.748;14.326;2023-04-15T13:01:15;9.52;;;5.32;;
51612;SDS011;37694;51.748;14.326;2023-04-15T13:03:41;7.03;;;5.07;;
51612;SDS011;37694;51.748;14.326;2023-04-15T13:06:07;8.45;;;5.32;;
51612;SDS011;37694;51.748;14.326;2023-04-15T13:08:32;6.35;;;4.93;;
51612;SDS011;37694;51.748;14.326;2023-04-15T13:10:58;9.98;;;6.13;;
51612;SDS011;37694;51.748;14.326;2023-04-15T13:13:24;7.13;;;5.25;;
51612;SDS011;37694;51.748;14.326;2023-04-15T13:15:50;8.93;;;5.85;;
51612;SDS011;37694;51.748;14.326;2023-04-15T13:18:16;7.15;;;5.40;;
51612;SDS011;37694;51.748;14.326;2023-04-15T13:20:41;7.53;;;5.50;;
51612;SDS011;37694;51.748;14.326;2023-04-15T13:23:07;5.68;;;5.07;;
51612;SDS011;37694;51.748;14.326;2023-04-15T13:25:33;8.15;;;5.72;;
51612;SDS011;37694;51.748;14.326;2023-04-15T13:27:59;6.75;;;4.68;;
51612;SDS011;37694;51.748;14.326;2023-04-15T13:30:25;7.18;;;4.70;;
51612;SDS011;37694;51.748;14.326;2023-04-15T13:32:52;7.82;;;5.53;;
51612;SDS011;37694;51.748;14.326;2023-04-15T13:35:18;5.82;;;4.75;;
51612;SDS011;37694;51.748;14.326;2023-04-15T13:37:44;6.63;;;4.60;;
51612;SDS011;37694;51.748;14.326;2023-04-15T13:40:11;7.28;;;4.95;;
51612;SDS011;37694;51.748;14.326;2023-04-15T13:42:36;6.25;;;4.75;;
51612;SDS011;37694;51.748;14.326;2023-04-15T13:45:02;7.65;;;4.70;;
51612;SDS011;37694;51.748;14.326;2023-04-15T13:47:28;5.65;;;4.88;;
51612;SDS011;37694;51.748;14.326;2023-04-15T13:49:54;6.47;;;4.80;;
51612;SDS011;37694;51.748;14.326;2023-04-15T13:52:21;6.15;;;4.90;;
51612;SDS011;37694;51.748;14.326;2023-04-15T13:54:47;6.97;;;5.05;;
51612;SDS011;37694;51.748;14.326;2023-04-15T13:57:13;7.30;;;5.10;;
51612;SDS011;37694;51.748;14.326;2023-04-15T13:59:38;8.40;;;4.90;;
51612;SDS011;37694;51.748;14.326;2023-04-15T14:02:05;6.32;;;4.65;;
51612;SDS011;37694;51.748;14.326;2023-04-15T14:04:31;5.80;;;4.32;;
51612;SDS011;37694;51.748;14.326;2023-04-15T14:06:57;6.65;;;5.70;;
51612;SDS011;37694;51.748;14.326;2023-04-15T14:09:22;6.15;;;4.65;;
51612;SDS011;37694;51.748;14.326;2023-04-15T14:11:49;4.97;;;4.35;;
51612;SDS011;37694;51.748;14.326;2023-04-15T14:14:15;5.40;;;4.40;;
51612;SDS011;37694;51.748;14.326;2023-04-15T14:16:41;5.00;;;4.50;;
51612;SDS011;37694;51.748;14.326;2023-04-15T14:19:06;4.93;;;4.20;;
51612;SDS011;37694;51.748;14.326;2023-04-15T14:21:32;8.90;;;4.35;;
51612;SDS011;37694;51.748;14.326;2023-04-15T14:23:58;6.20;;;4.60;;
51612;SDS011;37694;51.748;14.326;2023-04-15T14:26:24;8.88;;;5.28;;
51612;SDS011;37694;51.748;14.326;2023-04-15T14:28:50;4.95;;;4.28;;
51612;SDS011;37694;51.748;14.326;2023-04-15T14:31:16;6.07;;;4.63;;
51612;SDS011;37694;51.748;14.326;2023-04-15T14:33:42;6.05;;;4.30;;
51612;SDS011;37694;51.748;14.326;2023-04-15T14:36:08;5.57;;;4.72;;
51612;SDS011;37694;51.748;14.326;2023-04-15T14:38:34;5.25;;;4.75;;
51612;SDS011;37694;51.748;14.326;2023-04-15T14:41:07;7.05;;;4.80;;
51612;SDS011;37694;51.748;14.326;2023-04-15T14:43:33;6.85;;;4.70;;
51612;SDS011;37694;51.748;14.326;2023-04-15T14:45:59;5.60;;;4.20;;
51612;SDS011;37694;51.748;14.326;2023-04-15T14:48:25;5.65;;;4.82;;
51612;SDS011;37694;51.748;14.326;2023-04-15T14:50:51;6.13;;;4.60;;